Time;durP1;ratioP1;P1;durP2;ratioP2;P2;SDS_P1;SDS_P2;PMS_P1;PMS_P2;Temp;Humidity;BMP_temperature;BMP_pressure;BME280_temperature;BME280_humidity;BME280_pressure;Samples;Min_cycle;Max_cycle;Signal;HPM_P1;HPM_P2
2022/08/16 00:01:03;;;;;;;26.57;14.83;;;;;;;27.14;100.00;100000.19;1735271;80;21081;-69
2022/08/16 00:03:30;;;;;;;31.02;16.17;;;;;;;25.96;100.00;99958.45;1778449;80;21131;-68
2022/08/16 00:05:57;;;;;;;30.52;15.60;;;;;;;25.53;100.00;99946.33;1757387;80;21096;-68
2022/08/16 00:08:25;;;;;;;32.55;15.25;;;;;;;25.51;100.00;99936.47;1771208;80;21069;-69
2022/08/16 00:10:52;;;;;;;24.75;14.73;;;;;;;25.44;100.00;99935.53;1756540;80;21045;-69
2022/08/16 00:13:20;;;;;;;29.12;15.63;;;;;;;25.29;100.00;99923.14;1745440;80;21065;-69
2022/08/16 00:15:48;;;;;;;27.05;14.68;;;;;;;25.29;100.00;99923.14;1767078;80;21084;-69
2022/08/16 00:18:17;;;;;;;24.05;14.65;;;;;;;25.38;100.00;99929.99;1784151;80;21077;-70
2022/08/16 00:20:47;;;;;;;24.43;15.00;;;;;;;25.50;100.00;99933.50;1767755;80;21077;-69
2022/08/16 00:23:15;;;;;;;24.05;15.50;;;;;;;25.59;100.00;99941.66;1751889;80;21494;-70
2022/08/16 00:25:43;;;;;;;25.50;14.70;;;;;;;25.66;100.00;99941.24;1771889;80;21076;-70
2022/08/16 00:28:11;;;;;;;26.23;14.78;;;;;;;25.69;100.00;99945.33;1774948;80;21136;-69
2022/08/16 00:30:39;;;;;;;26.07;13.58;;;;;;;25.65;100.00;99942.73;1758815;80;21643;-69
2022/08/16 00:33:24;;;;;;;26.00;13.65;;;;;;;25.58;100.00;99946.59;1751105;80;21089;-70
2022/08/16 00:35:51;;;;;;;21.62;12.63;;;;;;;25.53;100.00;99957.68;1772576;80;21088;-69
2022/08/16 00:38:19;;;;;;;23.45;12.40;;;;;;;25.53;100.00;99963.45;1770776;80;21136;-69
2022/08/16 00:40:50;;;;;;;23.77;13.18;;;;;;;25.59;100.00;99961.42;1775732;80;21135;-69
2022/08/16 00:43:33;;;;;;;20.72;12.70;;;;;;;25.63;100.00;99952.16;1783428;80;21120;-69
2022/08/16 00:46:09;;;;;;;23.93;13.07;;;;;;;25.69;100.00;99956.72;1767791;80;21026;-69
2022/08/16 00:48:37;;;;;;;22.02;12.85;;;;;;;25.76;100.00;99956.80;1765634;80;21034;-69
2022/08/16 00:51:06;;;;;;;21.15;13.45;;;;;;;25.83;100.00;99956.42;1749736;80;21521;-69
2022/08/16 00:53:34;;;;;;;20.57;13.32;;;;;;;25.77;100.00;99951.36;1774765;80;21017;-69
2022/08/16 00:56:07;;;;;;;23.85;13.25;;;;;;;25.83;100.00;99947.66;1748891;80;21089;-69
2022/08/16 00:58:39;;;;;;;19.42;12.90;;;;;;;25.85;100.00;99947.83;1770271;80;21486;-69
2022/08/16 01:01:08;;;;;;;23.95;13.30;;;;;;;25.86;100.00;99941.54;1774096;80;21114;-69
2022/08/16 01:03:38;;;;;;;25.35;13.30;;;;;;;25.91;100.00;99946.29;1775169;80;21121;-69
2022/08/16 01:06:06;;;;;;;22.00;13.45;;;;;;;25.91;100.00;99943.66;1772236;79;21045;-69
2022/08/16 01:08:35;;;;;;;23.42;14.45;;;;;;;25.84;100.00;99937.45;1776980;80;21053;-69
2022/08/16 01:11:05;;;;;;;22.00;14.03;;;;;;;25.86;100.00;99934.14;1768723;80;21034;-69
2022/08/16 01:13:37;;;;;;;20.45;13.15;;;;;;;25.84;100.00;99939.58;1784891;79;21573;-69
2022/08/16 01:16:16;;;;;;;19.80;13.50;;;;;;;25.79;100.00;99936.18;1776446;80;21509;-68
2022/08/16 01:18:48;;;;;;;21.55;13.38;;;;;;;25.82;100.00;99941.58;1771967;80;21088;-68
2022/08/16 01:21:23;;;;;;;24.32;14.35;;;;;;;25.86;100.00;99941.54;1768545;80;21101;-69
2022/08/16 01:24:22;;;;;;;23.15;14.30;;;;;;;25.87;100.00;99943.67;1750889;80;21057;-69
2022/08/16 01:26:53;;;;;;;22.32;13.32;;;;;;;25.85;100.00;99941.71;1760129;80;21116;-69
2022/08/16 01:29:26;;;;;;;22.62;13.60;;;;;;;25.86;100.00;99949.45;1764148;80;20997;-69
2022/08/16 01:31:53;;;;;;;21.60;13.60;;;;;;;25.84;100.00;99956.72;1764240;80;21022;-69
2022/08/16 01:34:22;;;;;;;19.85;13.65;;;;;;;25.92;100.00;99952.71;1772154;80;21049;-69
2022/08/16 01:37:03;;;;;;;19.12;13.88;;;;;;;25.96;100.00;99962.41;1745925;80;21081;-69
2022/08/16 01:39:31;;;;;;;21.52;13.85;;;;;;;25.88;100.00;99984.36;1773603;80;21036;-70
2022/08/16 01:41:59;;;;;;;21.40;14.35;;;;;;;25.89;100.00;99982.54;1734595;80;21065;-69
2022/08/16 01:44:27;;;;;;;20.70;13.53;;;;;;;25.90;100.00;99974.48;1774760;80;21053;-69
2022/08/16 01:46:56;;;;;;;25.00;14.38;;;;;;;25.98;100.00;99964.36;1754904;80;21057;-69
2022/08/16 01:49:31;;;;;;;23.05;13.78;;;;;;;25.82;100.00;99933.67;1775454;80;21006;-69
2022/08/16 01:52:03;;;;;;;23.15;13.70;;;;;;;25.71;100.00;99934.95;1755107;80;21041;-70
2022/08/16 01:54:36;;;;;;;22.80;14.45;;;;;;;25.72;100.00;99924.70;1774130;80;21765;-71
2022/08/16 01:57:04;;;;;;;21.65;14.13;;;;;;;25.69;100.00;99932.99;1776908;80;21017;-69
2022/08/16 01:59:34;;;;;;;19.42;13.10;;;;;;;25.75;100.00;99940.18;1767427;80;21045;-70
2022/08/16 02:02:02;;;;;;;22.00;13.95;;;;;;;25.77;100.00;99963.70;1784653;80;21025;-69
2022/08/16 02:04:32;;;;;;;19.00;13.48;;;;;;;25.85;100.00;99962.81;1758237;80;21041;-69
2022/08/16 02:07:07;;;;;;;19.40;13.65;;;;;;;25.92;100.00;99978.27;1778923;80;21029;-69
2022/08/16 02:09:29;;;;;;;24.60;13.95;;;;;;;25.85;100.00;99996.61;1770612;80;21053;-69
2022/08/16 02:11:59;;;;;;;24.87;13.55;;;;;;;25.79;100.00;100004.73;1762140;80;21034;-69
2022/08/16 02:14:29;;;;;;;23.00;13.50;;;;;;;25.87;100.00;99994.61;1781567;80;21025;-69
2022/08/16 02:17:00;;;;;;;28.57;14.15;;;;;;;25.95;100.00;100002.95;1784563;80;21013;-69
2022/08/16 02:19:30;;;;;;;22.00;13.72;;;;;;;25.92;100.00;100019.95;1784677;80;20998;-70
2022/08/16 02:21:59;;;;;;;24.72;14.00;;;;;;;26.01;100.00;100031.74;1784779;80;21037;-69
2022/08/16 02:24:27;;;;;;;20.08;14.23;;;;;;;26.00;100.00;100034.08;1784423;80;21041;-69
2022/08/16 02:26:55;;;;;;;22.65;14.70;;;;;;;26.00;100.00;100040.67;1784543;80;21065;-69
2022/08/16 02:29:22;;;;;;;18.92;14.05;;;;;;;25.92;100.00;100043.69;1756990;80;21046;-69
2022/08/16 02:31:50;;;;;;;18.57;13.78;;;;;;;25.81;100.00;100044.58;1752702;80;21086;-69
2022/08/16 02:34:20;;;;;;;21.87;14.50;;;;;;;25.71;100.00;100038.23;1760233;80;21018;-69
2022/08/16 02:36:47;;;;;;;26.02;16.12;;;;;;;25.54;100.00;100078.41;1773279;80;21124;-69
2022/08/16 02:39:16;;;;;;;23.77;15.08;;;;;;;25.44;100.00;100079.14;1770750;80;21080;-69
2022/08/16 02:41:46;;;;;;;24.67;16.12;;;;;;;25.46;100.00;100097.72;1761153;80;21037;-69
2022/08/16 02:44:14;;;;;;;23.83;16.32;;;;;;;25.58;100.00;100097.64;1771902;80;21025;-69
2022/08/16 02:46:44;;;;;;;23.18;15.90;;;;;;;25.64;100.00;100096.62;1771643;80;21028;-70
2022/08/16 02:49:13;;;;;;;25.52;15.45;;;;;;;25.59;100.00;100097.16;1742308;80;21058;-69
2022/08/16 02:51:42;;;;;;;25.35;14.90;;;;;;;25.55;100.00;100084.83;1763759;80;21623;-69
2022/08/16 02:54:13;;;;;;;20.02;14.15;;;;;;;25.63;100.00;100085.75;1784644;80;21044;-70
2022/08/16 02:56:42;;;;;;;21.82;12.63;;;;;;;25.52;100.00;100099.66;1757185;80;21561;-69
2022/08/16 02:59:09;;;;;;;17.62;11.57;;;;;;;25.58;100.00;100117.91;1757188;80;21072;-70
2022/08/16 03:01:37;;;;;;;17.40;11.20;;;;;;;25.55;100.00;100113.01;1763725;80;21064;-69
2022/08/16 03:04:12;;;;;;;18.87;10.70;;;;;;;25.28;100.00;100114.30;1776087;80;21092;-69
2022/08/16 03:06:39;;;;;;;21.37;11.40;;;;;;;25.28;100.00;100125.66;1766628;80;21572;-70
2022/08/16 03:09:08;;;;;;;19.90;10.10;;;;;;;25.11;100.00;100106.45;1779995;80;21623;-70
2022/08/16 03:11:36;;;;;;;16.20;8.98;;;;;;;24.88;100.00;100096.34;1767661;80;21549;-70
2022/08/16 03:14:05;;;;;;;13.58;8.63;;;;;;;24.90;100.00;100094.36;1746310;81;21474;-70
2022/08/16 03:16:33;;;;;;;15.23;7.80;;;;;;;24.73;100.00;100089.66;1769390;80;21029;-70
2022/08/16 03:19:00;;;;;;;13.45;7.03;;;;;;;24.63;100.00;100067.99;1777948;80;21038;-70
2022/08/16 03:21:28;;;;;;;14.68;7.28;;;;;;;24.54;100.00;100061.94;1744323;80;21041;-69
2022/08/16 03:23:55;;;;;;;13.10;6.75;;;;;;;24.59;100.00;100056.50;1756888;80;21073;-69
2022/08/16 03:26:22;;;;;;;11.60;6.85;;;;;;;24.48;100.00;100070.48;1769338;80;21084;-70
2022/08/16 03:28:49;;;;;;;12.82;7.60;;;;;;;24.43;100.00;100089.38;1761493;80;21013;-69
2022/08/16 03:31:16;;;;;;;14.15;7.50;;;;;;;24.53;100.00;100090.55;1726308;80;21018;-69
2022/08/16 03:33:44;;;;;;;14.05;7.08;;;;;;;24.53;100.00;100088.76;1762859;80;21022;-69
2022/08/16 03:36:12;;;;;;;13.00;7.20;;;;;;;24.55;100.00;100069.67;1779931;80;21025;-70
2022/08/16 03:38:40;;;;;;;12.73;7.33;;;;;;;24.53;100.00;100070.34;1771310;80;21061;-69
2022/08/16 03:41:09;;;;;;;12.78;6.90;;;;;;;24.48;100.00;100071.80;1718861;82;21055;-69
2022/08/16 03:43:37;;;;;;;11.95;7.30;;;;;;;24.46;100.00;100069.83;1727377;82;21042;-69
2022/08/16 03:46:06;;;;;;;12.45;7.80;;;;;;;24.47;100.00;100064.88;1730639;82;21038;-69
2022/08/16 03:48:38;;;;;;;11.70;6.78;;;;;;;24.36;100.00;100075.27;1719888;81;21117;-69
2022/08/16 03:51:10;;;;;;;12.68;7.12;;;;;;;24.49;100.00;100076.05;1724136;82;21083;-69
2022/08/16 03:53:42;;;;;;;13.78;7.37;;;;;;;24.45;100.00;100070.80;1729322;82;21035;-69
2022/08/16 03:56:10;;;;;;;16.50;7.33;;;;;;;24.44;100.00;100071.81;1725444;82;21036;-70
2022/08/16 03:58:37;;;;;;;15.48;7.87;;;;;;;24.38;100.00;100074.11;1746720;82;21019;-70
2022/08/16 04:01:05;;;;;;;13.90;7.55;;;;;;;24.34;100.00;100066.23;1765611;80;21069;-69
2022/08/16 04:03:33;;;;;;;10.58;7.58;;;;;;;24.29;100.00;100062.45;1767993;80;21068;-69
2022/08/16 04:06:02;;;;;;;14.98;8.38;;;;;;;24.37;100.00;100049.28;1779127;80;21042;-70
2022/08/16 04:08:30;;;;;;;12.88;8.48;;;;;;;24.40;100.00;100041.88;1761319;80;21065;-69
2022/08/16 04:11:02;;;;;;;14.18;8.30;;;;;;;24.49;100.00;100043.98;1783099;80;21025;-69
2022/08/16 04:13:30;;;;;;;16.15;8.03;;;;;;;24.58;100.00;100060.11;1770179;80;21034;-69
2022/08/16 04:15:58;;;;;;;15.65;8.48;;;;;;;24.63;100.00;100058.27;1783201;80;21510;-69
2022/08/16 04:18:25;;;;;;;15.98;8.30;;;;;;;24.58;100.00;100055.34;1767966;80;21041;-69
2022/08/16 04:20:56;;;;;;;13.43;8.13;;;;;;;24.64;100.00;100067.02;1770230;80;21513;-69
2022/08/16 04:23:25;;;;;;;14.73;8.80;;;;;;;24.62;100.00;100087.42;1756786;80;21045;-69
2022/08/16 04:25:52;;;;;;;15.45;8.53;;;;;;;24.73;100.00;100098.88;1695012;82;21052;-70
2022/08/16 04:28:21;;;;;;;17.07;8.65;;;;;;;24.79;100.00;100092.94;1764564;80;21450;-70
2022/08/16 04:30:48;;;;;;;16.10;9.25;;;;;;;24.70;100.00;100082.13;1775807;80;21502;-70
2022/08/16 04:33:16;;;;;;;15.63;9.80;;;;;;;24.67;100.00;100097.73;1768146;80;21064;-69
2022/08/16 04:35:45;;;;;;;17.23;9.80;;;;;;;24.74;100.00;100104.48;1777206;80;21096;-70
2022/08/16 04:38:12;;;;;;;18.42;10.65;;;;;;;24.78;100.00;100109.73;1765767;80;21014;-69
2022/08/16 04:40:41;;;;;;;16.50;9.75;;;;;;;25.06;100.00;100102.69;1766692;80;21493;-69
2022/08/16 04:43:08;;;;;;;18.90;9.55;;;;;;;25.13;100.00;100112.88;1771090;80;21088;-69
2022/08/16 04:45:35;;;;;;;15.20;9.45;;;;;;;25.32;100.00;100111.14;1763062;80;21077;-69
2022/08/16 04:48:04;;;;;;;16.20;8.75;;;;;;;25.48;100.00;100110.23;1771124;80;21556;-69
2022/08/16 04:50:33;;;;;;;15.15;8.80;;;;;;;25.54;100.00;100117.94;1733267;82;21076;-69
2022/08/16 04:53:02;;;;;;;16.20;8.43;;;;;;;25.64;100.00;100112.44;1754434;80;21085;-70
2022/08/16 04:55:32;;;;;;;19.92;8.85;;;;;;;25.74;100.00;100123.06;1780899;80;21513;-70
2022/08/16 04:57:59;;;;;;;12.45;7.90;;;;;;;25.96;100.00;100135.14;1760562;80;20998;-70
2022/08/16 05:00:32;;;;;;;15.63;8.65;;;;;;;26.10;100.00;100138.32;1768667;80;21105;-70
2022/08/16 05:03:06;;;;;;;12.63;8.30;;;;;;;26.08;100.00;100117.08;1724546;82;21492;-70
2022/08/16 05:05:38;;;;;;;13.20;8.63;;;;;;;25.98;100.00;100129.20;1746849;82;21049;-71
2022/08/16 05:08:06;;;;;;;13.48;8.15;;;;;;;25.93;100.00;100122.30;1752535;80;21553;-70
2022/08/16 05:10:34;;;;;;;14.75;8.88;;;;;;;25.69;100.00;100094.27;1766652;80;21072;-70
2022/08/16 05:13:04;;;;;;;13.85;9.33;;;;;;;25.49;100.00;100085.53;1771670;80;21505;-70
2022/08/16 05:15:32;;;;;;;19.87;9.80;;;;;;;25.41;100.00;100094.00;1755193;80;21147;-70
2022/08/16 05:17:59;;;;;;;15.95;9.40;;;;;;;25.36;100.00;100100.58;1747719;80;21014;-70
2022/08/16 05:20:27;;;;;;;15.95;9.65;;;;;;;25.32;100.00;100111.14;1697030;82;21535;-69
2022/08/16 05:22:55;;;;;;;15.60;9.50;;;;;;;25.33;100.00;100129.92;1728715;81;21561;-70
2022/08/16 05:25:22;;;;;;;17.52;9.53;;;;;;;25.39;100.00;100137.13;1688772;84;21519;-70
2022/08/16 05:27:51;;;;;;;13.38;9.45;;;;;;;25.47;100.00;100132.83;1716003;83;21023;-69
2022/08/16 05:30:19;;;;;;;14.28;9.63;;;;;;;25.46;100.00;100131.17;1715124;83;21136;-70
2022/08/16 05:32:46;;;;;;;17.42;9.95;;;;;;;25.39;100.00;100123.95;1763579;80;21073;-69
2022/08/16 05:35:15;;;;;;;17.45;10.25;;;;;;;25.33;100.00;100136.51;1764349;80;21069;-69
2022/08/16 05:37:44;;;;;;;18.23;10.00;;;;;;;25.43;100.00;100153.94;1762996;80;21037;-70
2022/08/16 05:40:14;;;;;;;20.57;10.68;;;;;;;25.39;100.00;100165.30;1751972;80;21659;-70
2022/08/16 05:42:42;;;;;;;20.50;10.13;;;;;;;25.50;100.00;100179.39;1762158;80;21018;-69
2022/08/16 05:45:09;;;;;;;17.62;9.90;;;;;;;25.59;100.00;100178.37;1736914;80;21049;-69
2022/08/16 05:47:37;;;;;;;16.23;9.75;;;;;;;25.53;100.00;100177.75;1752641;80;21025;-69
2022/08/16 05:50:06;;;;;;;17.52;10.10;;;;;;;25.46;100.00;100175.47;1758952;80;21187;-69
2022/08/16 05:52:33;;;;;;;15.32;9.63;;;;;;;25.40;100.00;100173.52;1778395;80;21057;-70
2022/08/16 05:55:01;;;;;;;18.57;10.48;;;;;;;25.51;100.00;100196.05;1763833;80;21505;-69
2022/08/16 05:57:32;;;;;;;18.85;10.78;;;;;;;25.66;100.00;100204.84;1768924;80;21464;-69
2022/08/16 05:59:59;;;;;;;18.95;11.03;;;;;;;25.72;100.00;100238.93;1761139;80;21002;-69
2022/08/16 06:02:29;;;;;;;19.57;11.10;;;;;;;25.76;100.00;100241.55;1761328;80;21045;-70
2022/08/16 06:04:56;;;;;;;20.68;11.73;;;;;;;25.85;100.00;100237.88;1759462;80;21718;-70
2022/08/16 06:07:23;;;;;;;20.52;11.12;;;;;;;25.94;100.00;100237.35;1762240;80;21085;-70
2022/08/16 06:09:57;;;;;;;17.70;10.95;;;;;;;25.98;100.00;100242.60;1738417;80;21093;-70
2022/08/16 06:12:23;;;;;;;16.93;10.95;;;;;;;25.98;100.00;100239.46;1772771;80;21007;-70
2022/08/16 06:14:51;;;;;;;16.62;10.50;;;;;;;26.04;100.00;100253.77;1735404;81;21513;-70
2022/08/16 06:17:19;;;;;;;17.80;10.65;;;;;;;26.15;100.00;100252.03;1734896;80;21061;-69
2022/08/16 06:19:47;;;;;;;20.68;10.63;;;;;;;26.21;100.00;100247.88;1775458;80;21536;-69
2022/08/16 06:22:15;;;;;;;14.23;9.83;;;;;;;26.29;100.00;100253.59;1757472;79;21085;-69
2022/08/16 06:24:43;;;;;;;20.10;10.50;;;;;;;26.35;100.00;100268.73;1784624;80;21103;-69
2022/08/16 06:27:10;;;;;;;18.10;11.22;;;;;;;26.32;100.00;100263.31;1784644;80;21470;-70
2022/08/16 06:29:37;;;;;;;23.67;11.57;;;;;;;26.34;100.00;100257.36;1767255;80;21164;-70
2022/08/16 06:32:05;;;;;;;17.60;10.60;;;;;;;26.36;100.00;100250.08;1737670;80;21077;-69
2022/08/16 06:34:32;;;;;;;19.48;10.90;;;;;;;26.36;100.00;100245.31;1760455;80;21065;-70
2022/08/16 06:36:59;;;;;;;22.17;11.43;;;;;;;26.47;100.00;100230.36;1760422;80;21052;-70
2022/08/16 06:39:28;;;;;;;20.05;13.68;;;;;;;26.15;100.00;100217.73;1767990;80;21046;-69
2022/08/16 06:41:57;;;;;;;22.32;13.53;;;;;;;26.15;100.00;100217.73;1777195;80;21161;-69
2022/08/16 06:44:43;;;;;;;20.15;11.35;;;;;;;25.93;100.00;100188.23;1764912;80;21002;-69
2022/08/16 06:47:24;;;;;;;17.82;10.72;;;;;;;25.72;100.00;100175.15;1739165;80;20998;-70
2022/08/16 06:49:51;;;;;;;18.42;10.30;;;;;;;25.47;100.00;100146.00;1781260;80;21037;-69
2022/08/16 06:52:19;;;;;;;18.07;10.58;;;;;;;25.42;100.00;100148.32;1775439;80;21069;-70
2022/08/16 06:54:46;;;;;;;22.07;11.53;;;;;;;25.41;100.00;100144.88;1754770;80;21505;-70
2022/08/16 06:57:13;;;;;;;20.60;12.33;;;;;;;25.45;100.00;100143.53;1771067;80;21052;-69
2022/08/16 06:59:41;;;;;;;23.90;12.98;;;;;;;25.59;100.00;100135.38;1773575;80;21068;-69
2022/08/16 07:02:09;;;;;;;23.12;12.98;;;;;;;25.62;100.00;100136.34;1744214;80;21136;-69
2022/08/16 07:04:36;;;;;;;21.40;13.32;;;;;;;25.83;100.00;100137.03;1744316;80;21101;-69
2022/08/16 07:07:05;;;;;;;22.82;14.78;;;;;;;25.92;100.00;100130.72;1773491;80;21060;-70
2022/08/16 07:09:32;;;;;;;24.35;15.65;;;;;;;25.98;100.00;100141.87;1774625;80;21065;-69
2022/08/16 07:12:00;;;;;;;26.77;15.65;;;;;;;26.22;100.00;100140.52;1767174;80;20986;-70
2022/08/16 07:14:30;;;;;;;23.42;16.52;;;;;;;26.33;100.00;100142.23;1768864;80;21049;-70
2022/08/16 07:16:59;;;;;;;24.50;15.28;;;;;;;26.61;100.00;100147.45;1753442;80;21017;-70
2022/08/16 07:19:31;;;;;;;24.75;15.65;;;;;;;26.71;100.00;100153.28;1733584;81;21010;-70
2022/08/16 07:22:01;;;;;;;20.20;15.08;;;;;;;26.62;100.00;100148.56;1773868;80;21021;-69
2022/08/16 07:24:29;;;;;;;25.43;15.90;;;;;;;26.51;100.00;100154.28;1740246;80;21037;-69
2022/08/16 07:27:01;;;;;;;27.25;16.40;;;;;;;26.81;100.00;100170.99;1754872;80;21578;-69
2022/08/16 07:29:29;;;;;;;23.90;15.60;;;;;;;26.81;100.00;100170.99;1755692;80;21017;-70
2022/08/16 07:31:57;;;;;;;28.35;16.90;;;;;;;26.90;100.00;100173.84;1767981;80;21018;-70
2022/08/16 07:34:24;;;;;;;24.37;17.12;;;;;;;27.11;100.00;100178.41;1764114;80;21502;-69
2022/08/16 07:36:51;;;;;;;30.57;18.80;;;;;;;27.31;100.00;100172.56;1741364;80;21014;-69
2022/08/16 07:39:18;;;;;;;28.07;17.85;;;;;;;27.43;100.00;100183.48;1777334;80;21061;-69
2022/08/16 07:41:46;;;;;;;24.30;17.73;;;;;;;27.48;100.00;100191.69;1743084;80;21552;-68
2022/08/16 07:44:13;;;;;;;34.45;17.67;;;;;;;27.53;100.00;100199.86;1774606;80;21501;-68
2022/08/16 07:46:40;;;;;;;22.77;15.50;;;;;;;27.64;100.00;100199.39;1766840;80;21069;-69
2022/08/16 07:49:09;;;;;;;25.77;16.00;;;;;;;27.81;100.00;100216.34;1767829;80;21069;-69
2022/08/16 07:51:36;;;;;;;28.27;17.80;;;;;;;27.89;100.00;100217.58;1779024;80;21081;-69
2022/08/16 07:54:07;;;;;;;31.70;18.95;;;;;;;27.85;100.00;100205.70;1765249;80;21065;-69
2022/08/16 07:56:34;;;;;;;33.02;19.40;;;;;;;28.00;100.00;100204.34;1733000;81;21057;-69
2022/08/16 07:59:02;;;;;;;35.43;20.12;;;;;;;28.12;100.00;100213.41;1752933;80;21041;-69
2022/08/16 08:01:31;;;;;;;38.50;20.12;;;;;;;28.30;100.00;100207.16;1760166;80;21054;-68
2022/08/16 08:03:58;;;;;;;35.78;19.48;;;;;;;28.41;100.00;100213.78;1764316;80;21057;-69
2022/08/16 08:06:31;;;;;;;37.25;19.62;;;;;;;28.58;100.00;100217.50;1762673;80;21090;-69
2022/08/16 08:09:02;;;;;;;27.82;17.35;;;;;;;28.65;100.00;100227.62;1766183;80;21010;-69
2022/08/16 08:11:30;;;;;;;26.20;14.95;;;;;;;28.60;100.00;100230.04;1772034;80;21572;-69
2022/08/16 08:14:00;;;;;;;25.82;14.80;;;;;;;28.54;100.00;100237.73;1748927;80;21010;-69
2022/08/16 08:16:28;;;;;;;23.10;14.25;;;;;;;28.50;100.00;100251.55;1732013;81;22132;-69
2022/08/16 08:18:55;;;;;;;22.95;13.78;;;;;;;28.52;100.00;100241.59;1763377;81;21106;-69
2022/08/16 08:21:24;;;;;;;26.10;13.50;;;;;;;28.47;100.00;100242.14;1764728;80;21033;-70
2022/08/16 08:23:52;;;;;;;21.95;12.25;;;;;;;28.44;100.00;100241.19;1773914;80;21068;-70
2022/08/16 08:26:19;;;;;;;20.48;12.20;;;;;;;28.37;100.00;100246.43;1777918;80;21076;-70
2022/08/16 08:28:47;;;;;;;19.50;12.68;;;;;;;28.38;100.00;100246.73;1763093;80;21560;-69
2022/08/16 08:31:15;;;;;;;19.85;12.03;;;;;;;28.43;100.00;100248.83;1762090;80;21061;-69
2022/08/16 08:33:42;;;;;;;23.18;12.28;;;;;;;28.39;100.00;100247.58;1771040;80;21009;-69
2022/08/16 08:36:14;;;;;;;18.32;12.25;;;;;;;28.36;100.00;100251.39;1773487;80;21108;-69
2022/08/16 08:38:39;;;;;;;18.60;12.35;;;;;;;28.16;100.00;100256.53;1737066;81;21537;-69
2022/08/16 08:41:07;;;;;;;23.25;12.37;;;;;;;28.16;100.00;100248.59;1774921;80;21053;-69
2022/08/16 08:43:35;;;;;;;21.57;11.35;;;;;;;27.79;100.00;100256.20;1767497;80;20997;-69
2022/08/16 08:46:03;;;;;;;23.90;11.10;;;;;;;27.65;100.00;100263.67;1760254;80;21033;-69
2022/08/16 08:48:31;;;;;;;26.48;11.10;;;;;;;27.51;100.00;100259.53;1771426;80;21048;-69
2022/08/16 08:50:59;;;;;;;17.62;11.48;;;;;;;27.31;100.00;100269.88;1762821;80;21090;-69
2022/08/16 08:53:27;;;;;;;21.52;10.50;;;;;;;27.31;100.00;100269.88;1741343;80;21744;-68
2022/08/16 08:55:54;;;;;;;23.07;11.65;;;;;;;27.31;100.00;100267.23;1775079;80;21048;-69
2022/08/16 08:58:21;;;;;;;18.80;11.28;;;;;;;27.60;100.00;100266.88;1753611;80;21117;-69
2022/08/16 09:00:55;;;;;;;17.23;11.43;;;;;;;27.80;100.00;100268.44;1746149;80;21045;-69
2022/08/16 09:03:22;;;;;;;23.20;11.53;;;;;;;27.84;100.00;100264.89;1755530;80;21037;-69
2022/08/16 09:05:53;;;;;;;17.40;10.98;;;;;;;27.94;100.00;100264.11;1774174;80;21120;-69
2022/08/16 09:08:21;;;;;;;21.37;11.03;;;;;;;28.04;100.00;100259.37;1783817;80;22782;-69
2022/08/16 09:10:54;;;;;;;19.17;10.88;;;;;;;28.07;100.00;100251.55;1778618;80;21064;-69
2022/08/16 09:13:23;;;;;;;22.25;10.95;;;;;;;27.97;100.00;100250.53;1763599;80;21573;-69
2022/08/16 09:15:54;;;;;;;20.60;10.13;;;;;;;28.16;100.00;100243.78;1760132;80;21077;-69
2022/08/16 09:18:23;;;;;;;19.15;10.90;;;;;;;28.24;100.00;100240.20;1745004;80;21101;-69
2022/08/16 09:20:51;;;;;;;20.72;11.15;;;;;;;28.66;100.00;100239.86;1770845;80;21030;-68
2022/08/16 09:23:19;;;;;;;17.92;10.75;;;;;;;29.13;100.00;100243.13;1743215;80;21014;-69
2022/08/16 09:25:48;;;;;;;20.23;10.58;;;;;;;29.47;100.00;100245.44;1754826;79;21136;-68
2022/08/16 09:28:18;;;;;;;15.30;10.03;;;;;;;29.86;100.00;100251.11;1761300;80;21057;-68
2022/08/16 09:30:46;;;;;;;19.70;10.05;;;;;;;30.01;99.98;100250.44;1773079;80;21018;-68
2022/08/16 09:33:17;;;;;;;17.17;10.13;;;;;;;30.11;98.53;100248.69;1765116;80;21541;-68
2022/08/16 09:35:46;;;;;;;18.00;10.65;;;;;;;30.28;98.74;100246.48;1767654;80;21025;-69
2022/08/16 09:38:13;;;;;;;20.50;10.43;;;;;;;30.56;95.74;100250.30;1768758;80;21525;-68
2022/08/16 09:40:45;;;;;;;15.68;10.23;;;;;;;30.65;97.68;100246.91;1773310;80;21096;-69
2022/08/16 09:43:17;;;;;;;28.05;11.08;;;;;;;30.61;97.59;100249.15;1763274;80;21699;-69
2022/08/16 09:45:45;;;;;;;23.12;11.20;;;;;;;30.68;96.03;100249.16;1768252;80;21526;-69
2022/08/16 09:48:14;;;;;;;20.62;10.35;;;;;;;30.65;97.27;100248.23;1766874;80;21065;-69
2022/08/16 09:50:43;;;;;;;24.07;10.30;;;;;;;30.36;96.63;100238.34;1782920;80;21155;-68
2022/08/16 09:53:19;;;;;;;17.40;10.53;;;;;;;30.36;95.11;100243.66;1768636;80;21069;-69
2022/08/16 09:55:51;;;;;;;17.95;11.30;;;;;;;30.46;95.20;100232.63;1771199;80;21016;-69
2022/08/16 09:58:22;;;;;;;20.05;11.68;;;;;;;30.58;97.16;100230.14;1761849;80;21030;-69
2022/08/16 10:00:50;;;;;;;23.35;11.00;;;;;;;30.32;95.56;100236.59;1757198;80;21100;-70
2022/08/16 10:03:19;;;;;;;23.02;13.10;;;;;;;30.49;97.11;100233.53;1769288;80;21029;-68
2022/08/16 10:05:48;;;;;;;22.60;13.25;;;;;;;30.84;94.36;100231.45;1744637;80;21105;-68
2022/08/16 10:08:17;;;;;;;22.13;12.75;;;;;;;31.14;91.13;100237.63;1751989;80;21081;-69
2022/08/16 10:13:35;;;;;;;23.00;12.65;;;;;;;31.43;90.32;100238.13;1766881;80;21068;-69
2022/08/16 10:16:02;;;;;;;24.15;13.35;;;;;;;31.48;90.69;100241.02;1773256;80;21001;-69
2022/08/16 10:18:31;;;;;;;22.15;13.62;;;;;;;31.46;88.81;100245.73;1778596;80;21029;-68
2022/08/16 10:20:58;;;;;;;23.10;13.08;;;;;;;31.53;87.47;100249.19;1770609;80;21112;-70
2022/08/16 10:23:28;;;;;;;24.37;13.53;;;;;;;32.03;84.64;100252.51;1780032;80;21030;-68
2022/08/16 10:25:55;;;;;;;25.02;13.20;;;;;;;32.01;84.60;100251.91;1765450;80;21080;-69
2022/08/16 10:28:24;;;;;;;25.77;12.43;;;;;;;32.14;85.15;100247.84;1778294;80;21031;-69
2022/08/16 10:30:52;;;;;;;24.98;12.45;;;;;;;32.25;85.27;100250.30;1762472;80;21002;-69
2022/08/16 10:33:19;;;;;;;17.65;11.93;;;;;;;31.93;84.14;100248.42;1763214;80;21092;-69
2022/08/16 10:35:46;;;;;;;23.07;11.70;;;;;;;31.95;89.39;100253.55;1774965;80;21041;-69
2022/08/16 10:38:15;;;;;;;25.50;12.73;;;;;;;32.12;81.02;100256.55;1775386;80;21112;-69
2022/08/16 10:40:42;;;;;;;18.07;11.80;;;;;;;32.04;80.65;100269.61;1762149;80;21127;-69
2022/08/16 10:43:10;;;;;;;22.65;12.60;;;;;;;31.98;83.05;100266.45;1760615;80;21040;-69
2022/08/16 10:45:37;;;;;;;18.02;12.60;;;;;;;31.82;84.81;100268.28;1762366;80;21593;-69
2022/08/16 10:48:08;;;;;;;18.55;12.05;;;;;;;31.78;87.40;100265.22;1773626;80;21069;-69
2022/08/16 10:50:37;;;;;;;22.45;13.45;;;;;;;31.82;84.47;100267.76;1749018;80;21608;-69
2022/08/16 10:53:05;;;;;;;26.37;13.03;;;;;;;31.84;80.86;100268.36;1764788;80;21100;-69
2022/08/16 10:55:36;;;;;;;22.42;13.65;;;;;;;31.70;80.81;100266.28;1760336;80;21081;-68
2022/08/16 10:58:06;;;;;;;21.68;13.22;;;;;;;31.75;82.62;100269.62;1754609;80;21057;-69
2022/08/16 11:00:37;;;;;;;21.80;12.78;;;;;;;31.66;82.20;100273.06;1768814;80;21064;-68
2022/08/16 11:03:05;;;;;;;22.45;13.03;;;;;;;31.32;83.29;100278.18;1780529;80;21041;-69
2022/08/16 11:05:37;;;;;;;25.45;14.38;;;;;;;31.33;84.72;100270.52;1780984;80;21029;-69
2022/08/16 11:08:07;;;;;;;27.10;15.65;;;;;;;31.15;85.53;100269.33;1775870;80;21612;-68
2022/08/16 11:10:41;;;;;;;26.15;14.30;;;;;;;31.05;85.59;100262.83;1765021;80;21065;-69
2022/08/16 11:13:12;;;;;;;23.67;14.15;;;;;;;31.52;86.64;100264.31;1774344;80;21053;-69
2022/08/16 11:15:43;;;;;;;19.32;13.70;;;;;;;31.68;84.95;100265.68;1737678;80;21140;-69
2022/08/16 11:18:11;;;;;;;26.30;13.75;;;;;;;31.83;85.09;100264.05;1772255;80;21057;-68